Time;durP1;ratioP1;P1;durP2;ratioP2;P2;SDS_P1;SDS_P2;PMS_P1;PMS_P2;Temp;Humidity;BMP_temperature;BMP_pressure;BME280_temperature;BME280_humidity;BME280_pressure;Samples;Min_cycle;Max_cycle;Signal;HPM_P1;HPM_P2
2023/07/26 00:00:31;;;;;;;;;;;;;;;-144.99;100.00;52399.19;4986362;28;19926;-64
2023/07/26 00:02:58;;;;;;;;;;;;;;;-144.99;100.00;52386.94;4988718;28;19926;-64
2023/07/26 00:05:24;;;;;;;;;;;;;;;-144.99;100.00;52366.56;4981413;28;20457;-65
2023/07/26 00:07:51;;;;;;;;;;;;;;;-144.99;100.00;52382.88;4981550;28;20386;-64
2023/07/26 00:10:17;;;;;;;;;;;;;;;-144.99;100.00;52350.25;4987642;28;20028;-64
2023/07/26 00:12:45;;;;;;;;;;;;;;;-144.99;100.00;52354.34;4988638;28;20017;-64
2023/07/26 00:15:11;;;;;;;;;;;;;;;-144.99;100.00;52368.59;4983071;28;19977;-65
2023/07/26 00:17:38;;;;;;;;;;;;;;;-144.99;100.00;52378.78;4982680;28;19940;-66
2023/07/26 00:20:05;;;;;;;;;;;;;;;-144.99;100.00;52333.94;4989762;28;20367;-65
2023/07/26 00:22:32;;;;;;;;;;;;;;;-144.99;100.00;52370.63;4985958;28;19962;-63
2023/07/26 00:24:59;;;;;;;;;;;;;;;-144.99;100.00;52376.75;4988565;28;20362;-64
2023/07/26 00:27:26;;;;;;;;;;;;;;;-144.99;100.00;52352.28;4982727;28;19933;-65
2023/07/26 00:29:54;;;;;;;;;;;;;;;-144.99;100.00;52360.44;4990203;28;20016;-63
2023/07/26 00:32:20;;;;;;;;;;;;;;;-144.99;100.00;52362.50;4990584;28;20406;-69
2023/07/26 00:34:46;;;;;;;;;;;;;;;-144.99;100.00;52354.34;4991890;28;20379;-68
2023/07/26 00:37:13;;;;;;;;;;;;;;;-144.99;100.00;52366.56;4991958;28;20591;-60
2023/07/26 00:39:39;;;;;;;;;;;;;;;-144.99;100.00;52386.94;4982566;28;20470;-61
2023/07/26 00:42:06;;;;;;;;;;;;;;;-144.99;100.00;52370.63;4990665;28;19932;-60
2023/07/26 00:44:32;;;;;;;;;;;;;;;-144.99;100.00;52358.41;4991548;28;19929;-61
2023/07/26 00:47:00;;;;;;;;;;;;;;;-144.99;100.00;52384.91;4984664;28;20359;-61
2023/07/26 00:49:27;;;;;;;;;;;;;;;-144.99;100.00;52358.41;4991553;28;19975;-62
2023/07/26 00:51:54;;;;;;;;;;;;;;;-144.99;100.00;52348.22;4992247;28;19926;-60
2023/07/26 00:54:21;;;;;;;;;;;;;;;-144.99;100.00;52338.03;4990036;28;20056;-61
2023/07/26 00:56:47;;;;;;;;;;;;;;;-144.99;100.00;52348.22;4991499;28;20473;-64
2023/07/26 00:59:14;;;;;;;;;;;;;;;-144.99;100.00;52362.50;4991683;28;19969;-62
2023/07/26 01:01:40;;;;;;;;;;;;;;;-144.99;100.00;52354.34;4989817;28;20009;-60
2023/07/26 01:04:08;;;;;;;;;;;;;;;-144.99;100.00;52354.34;4991558;28;19926;-67
2023/07/26 01:06:41;;;;;;;;;;;;;;;-144.99;100.00;52378.78;4989580;28;19972;-63
2023/07/26 01:09:14;;;;;;;;;;;;;;;-144.99;100.00;52386.94;4979596;28;20431;-63
2023/07/26 01:11:42;;;;;;;;;;;;;;;-144.99;100.00;52366.56;4983694;28;20307;-64
2023/07/26 01:14:14;;;;;;;;;;;;;;;-144.99;100.00;52356.38;4991234;28;19984;-66
2023/07/26 01:16:41;;;;;;;;;;;;;;;-144.99;100.00;52358.41;4983634;28;20284;-65
2023/07/26 01:19:08;;;;;;;;;;;;;;;-144.99;100.00;52358.41;4985288;28;20017;-64
2023/07/26 01:21:36;;;;;;;;;;;;;;;-144.99;100.00;52366.56;4990334;28;19944;-65
2023/07/26 01:24:03;;;;;;;;;;;;;;;-144.99;100.00;52391.03;4989274;28;20017;-63
2023/07/26 01:26:29;;;;;;;;;;;;;;;-144.99;100.00;52360.44;4991513;28;19996;-61
2023/07/26 01:28:56;;;;;;;;;;;;;;;-144.99;100.00;52366.56;4985494;28;19926;-62
2023/07/26 01:31:24;;;;;;;;;;;;;;;-144.99;100.00;52358.41;4988688;28;19972;-64
2023/07/26 01:33:52;;;;;;;;;;;;;;;-144.99;100.00;52374.72;4990693;28;20597;-61
2023/07/26 01:36:20;;;;;;;;;;;;;;;-144.99;100.00;52342.09;4999747;28;19925;-62
2023/07/26 01:38:48;;;;;;;;;;;;;;;-144.99;100.00;52378.78;4987840;28;20621;-61
2023/07/26 01:41:15;;;;;;;;;;;;;;;-144.99;100.00;52362.50;4986018;28;19972;-65
2023/07/26 01:43:42;;;;;;;;;;;;;;;-144.99;100.00;52329.88;4985240;28;20053;-65
2023/07/26 01:46:11;;;;;;;;;;;;;;;-144.99;100.00;52358.41;4982694;28;19966;-66
2023/07/26 01:48:37;;;;;;;;;;;;;;;-144.99;100.00;52374.72;4993326;28;20483;-66
2023/07/26 01:51:04;;;;;;;;;;;;;;;-144.99;100.00;52336.00;4981267;28;19934;-65
2023/07/26 01:53:30;;;;;;;;;;;;;;;-144.99;100.00;52362.50;4982553;28;19932;-65
2023/07/26 01:55:58;;;;;;;;;;;;;;;-144.99;100.00;52395.09;4983822;28;20017;-66
2023/07/26 01:58:25;;;;;;;;;;;;;;;-144.99;100.00;52342.09;4986281;28;19964;-65
2023/07/26 02:00:51;;;;;;;;;;;;;;;-144.99;100.00;52368.59;4983006;28;19984;-66
2023/07/26 02:03:18;;;;;;;;;;;;;;;-144.99;100.00;52362.50;4990021;28;20449;-65
2023/07/26 02:05:44;;;;;;;;;;;;;;;-144.99;100.00;52358.41;4981990;28;19930;-65
2023/07/26 02:08:11;;;;;;;;;;;;;;;-144.99;100.00;52342.09;4990357;28;19930;-66
2023/07/26 02:10:37;;;;;;;;;;;;;;;-144.99;100.00;52350.25;4991252;28;19981;-64
2023/07/26 02:13:05;;;;;;;;;;;;;;;-144.99;100.00;52354.34;4990092;28;20040;-65
2023/07/26 02:15:32;;;;;;;;;;;;;;;-144.99;100.00;52354.34;4988677;28;20017;-65
2023/07/26 02:17:59;;;;;;;;;;;;;;;-144.99;100.00;52382.88;4991027;28;19936;-65
2023/07/26 02:20:25;;;;;;;;;;;;;;;-144.99;100.00;52366.56;4985890;28;19965;-65
2023/07/26 02:22:52;;;;;;;;;;;;;;;-144.99;100.00;52350.25;4993568;28;20012;-65
2023/07/26 02:25:18;;;;;;;;;;;;;;;-144.99;100.00;52350.25;4989552;28;19968;-65
2023/07/26 02:27:45;;;;;;;;;;;;;;;-144.99;100.00;52336.00;4989941;28;20012;-65
2023/07/26 02:30:13;;;;;;;;;;;;;;;-144.99;100.00;52346.19;4987298;28;20028;-65
2023/07/26 02:32:39;;;;;;;;;;;;;;;-144.99;100.00;52350.25;4983422;28;20617;-66
2023/07/26 02:35:06;;;;;;;;;;;;;;;-144.99;100.00;52364.53;4990181;28;20566;-65
2023/07/26 02:37:32;;;;;;;;;;;;;;;-144.99;100.00;52397.13;4987282;28;19968;-63
2023/07/26 02:39:59;;;;;;;;;;;;;;;-144.99;100.00;52372.69;4989233;28;19929;-64
2023/07/26 02:42:26;;;;;;;;;;;;;;;-144.99;100.00;52333.94;4988024;28;20494;-64
2023/07/26 02:44:54;;;;;;;;;;;;;;;-144.99;100.00;52376.75;4984803;28;19961;-67
2023/07/26 02:47:22;;;;;;;;;;;;;;;-144.99;100.00;52356.38;4990071;28;20051;-69
2023/07/26 02:49:48;;;;;;;;;;;;;;;-144.99;100.00;52360.44;4986901;28;20453;-67
2023/07/26 02:52:14;;;;;;;;;;;;;;;-144.99;100.00;52368.59;4984482;28;19999;-67
2023/07/26 02:54:41;;;;;;;;;;;;;;;-144.99;100.00;52354.34;4985111;28;20054;-66
2023/07/26 02:57:07;;;;;;;;;;;;;;;-144.99;100.00;52384.91;4991009;28;20028;-66
2023/07/26 02:59:34;;;;;;;;;;;;;;;-144.99;100.00;52354.34;4989608;28;20034;-65
2023/07/26 03:02:00;;;;;;;;;;;;;;;-144.99;100.00;52350.25;4987270;28;20373;-70
2023/07/26 03:04:28;;;;;;;;;;;;;;;-144.99;100.00;52399.19;4990367;28;19986;-69
2023/07/26 03:06:55;;;;;;;;;;;;;;;-144.99;100.00;52350.25;4978961;28;20235;-68
2023/07/26 03:09:21;;;;;;;;;;;;;;;-144.99;100.00;52374.72;4987692;28;20042;-68
2023/07/26 03:11:48;;;;;;;;;;;;;;;-144.99;100.00;52354.34;4987269;28;20052;-68
2023/07/26 03:14:14;;;;;;;;;;;;;;;-144.99;100.00;52348.22;4996156;28;20030;-68
2023/07/26 03:16:41;;;;;;;;;;;;;;;-144.99;100.00;52366.56;4989064;28;19990;-68
2023/07/26 03:19:07;;;;;;;;;;;;;;;-144.99;100.00;52374.72;4991091;28;19980;-69
2023/07/26 03:21:35;;;;;;;;;;;;;;;-144.99;100.00;52321.72;4991193;28;20006;-69
2023/07/26 03:24:02;;;;;;;;;;;;;;;-144.99;100.00;52354.34;4982747;28;19951;-68
2023/07/26 03:26:29;;;;;;;;;;;;;;;-144.99;100.00;52366.56;4994944;28;20408;-69
2023/07/26 03:28:55;;;;;;;;;;;;;;;-144.99;100.00;52354.34;4989719;28;19950;-69
2023/07/26 03:31:22;;;;;;;;;;;;;;;-144.99;100.00;52382.88;4985017;28;20054;-70
2023/07/26 03:33:48;;;;;;;;;;;;;;;-144.99;100.00;52366.56;4988034;28;20110;-69
2023/07/26 03:36:15;;;;;;;;;;;;;;;-144.99;100.00;52374.72;4980878;28;19986;-67
2023/07/26 03:38:42;;;;;;;;;;;;;;;-144.99;100.00;52342.09;4987076;28;20018;-68
2023/07/26 03:41:09;;;;;;;;;;;;;;;-144.99;100.00;52364.53;4986917;28;20051;-68
2023/07/26 03:43:35;;;;;;;;;;;;;;;-144.99;100.00;52374.72;4983787;28;19944;-67
2023/07/26 03:46:02;;;;;;;;;;;;;;;-144.99;100.00;52358.41;4987452;28;19975;-68
2023/07/26 03:48:29;;;;;;;;;;;;;;;-144.99;100.00;52362.50;4987924;28;20434;-67
2023/07/26 03:50:56;;;;;;;;;;;;;;;-144.99;100.00;52342.09;4988472;28;19959;-68
2023/07/26 03:53:22;;;;;;;;;;;;;;;-144.99;100.00;52370.63;4987415;28;19945;-68
2023/07/26 03:55:50;;;;;;;;;;;;;;;-144.99;100.00;52384.91;4989376;28;19950;-68
2023/07/26 03:58:17;;;;;;;;;;;;;;;-144.99;100.00;52391.03;4993128;28;19955;-67
2023/07/26 04:00:43;;;;;;;;;;;;;;;-144.99;100.00;52338.03;4992604;28;19971;-66
2023/07/26 04:03:10;;;;;;;;;;;;;;;-144.99;100.00;52325.81;4990502;28;20400;-65
2023/07/26 04:05:36;;;;;;;;;;;;;;;-144.99;100.00;52360.44;4992942;28;19947;-66
2023/07/26 04:08:03;;;;;;;;;;;;;;;-144.99;100.00;52366.56;4990439;28;20574;-65
2023/07/26 04:10:30;;;;;;;;;;;;;;;-144.99;100.00;52313.56;4991764;28;19964;-65
2023/07/26 04:12:58;;;;;;;;;;;;;;;-144.99;100.00;52329.88;4988390;28;19957;-65
2023/07/26 04:15:24;;;;;;;;;;;;;;;-144.99;100.00;52358.41;4999878;28;20229;-66
2023/07/26 04:17:51;;;;;;;;;;;;;;;-144.99;100.00;52325.81;4998483;28;19949;-65
2023/07/26 04:20:18;;;;;;;;;;;;;;;-144.99;100.00;52313.56;4997858;28;19967;-64
2023/07/26 04:22:44;;;;;;;;;;;;;;;-144.99;100.00;52362.50;4991032;28;20899;-64
2023/07/26 04:25:11;;;;;;;;;;;;;;;-144.99;100.00;52342.09;4990040;28;19965;-65
2023/07/26 04:27:37;;;;;;;;;;;;;;;-144.99;100.00;52366.56;4990030;28;19949;-65
2023/07/26 04:30:06;;;;;;;;;;;;;;;-144.99;100.00;52378.78;4986653;28;19951;-65
2023/07/26 04:32:33;;;;;;;;;;;;;;;-144.99;100.00;52340.06;4991698;28;19966;-65
2023/07/26 04:34:59;;;;;;;;;;;;;;;-144.99;100.00;52362.50;4987994;28;19947;-65
2023/07/26 04:37:26;;;;;;;;;;;;;;;-144.99;100.00;52346.19;4991226;28;19944;-65
2023/07/26 04:39:53;;;;;;;;;;;;;;;-144.99;100.00;52338.03;4996351;28;19948;-66
2023/07/26 04:42:19;;;;;;;;;;;;;;;-144.99;100.00;52309.50;4989517;28;20546;-66
2023/07/26 04:44:46;;;;;;;;;;;;;;;-144.99;100.00;52346.19;4993746;28;20385;-68
2023/07/26 04:47:15;;;;;;;;;;;;;;;-144.99;100.00;52333.94;4989446;28;20071;-65
2023/07/26 04:49:41;;;;;;;;;;;;;;;-144.99;100.00;52317.66;4991315;28;20006;-65
2023/07/26 04:52:08;;;;;;;;;;;;;;;-144.99;100.00;52342.09;4991373;28;19960;-65
2023/07/26 04:54:35;;;;;;;;;;;;;;;-144.99;100.00;52342.09;4989126;28;19944;-64
2023/07/26 04:57:01;;;;;;;;;;;;;;;-144.99;100.00;52360.44;4991797;28;19940;-65
2023/07/26 04:59:28;;;;;;;;;;;;;;;-144.99;100.00;52307.47;4991186;28;20389;-72
2023/07/26 05:01:55;;;;;;;;;;;;;;;-144.99;100.00;52289.13;4987148;28;20051;-72
2023/07/26 05:04:23;;;;;;;;;;;;;;;-144.99;100.00;52297.25;4990720;28;20198;-72
2023/07/26 05:06:49;;;;;;;;;;;;;;;-144.99;100.00;52329.88;4988804;28;19947;-72
2023/07/26 05:09:16;;;;;;;;;;;;;;;-144.99;100.00;52293.19;4986968;28;20379;-72
2023/07/26 05:11:43;;;;;;;;;;;;;;;-144.99;100.00;52370.63;4982685;28;19965;-72
2023/07/26 05:14:09;;;;;;;;;;;;;;;-144.99;100.00;52321.72;4989200;28;20476;-70
2023/07/26 05:16:36;;;;;;;;;;;;;;;-144.99;100.00;52338.03;4642851;28;9999663;-71
2023/07/26 05:19:03;;;;;;;;;;;;;;;-144.99;100.00;52297.25;4987830;28;20408;-71
2023/07/26 05:21:31;;;;;;;;;;;;;;;-144.99;100.00;52307.47;4986576;28;19956;-71
2023/07/26 05:23:57;;;;;;;;;;;;;;;-144.99;100.00;52333.94;4984798;28;19953;-71
2023/07/26 05:26:24;;;;;;;;;;;;;;;-144.99;100.00;52321.72;4986273;28;20290;-71
2023/07/26 05:28:51;;;;;;;;;;;;;;;-144.99;100.00;52354.34;4989197;28;19952;-71
2023/07/26 05:31:17;;;;;;;;;;;;;;;-144.99;100.00;52342.09;4984618;28;19967;-72
2023/07/26 05:33:44;;;;;;;;;;;;;;;-144.99;100.00;52317.66;4985014;28;19950;-71
2023/07/26 05:36:11;;;;;;;;;;;;;;;-144.99;100.00;52301.34;4982015;28;19949;-71
2023/07/26 05:38:39;;;;;;;;;;;;;;;-144.99;100.00;52317.66;4984073;28;20196;-71
2023/07/26 05:41:06;;;;;;;;;;;;;;;-144.99;100.00;52346.19;4979565;28;19970;-71
2023/07/26 05:43:32;;;;;;;;;;;;;;;-144.99;100.00;52323.75;4984771;28;19978;-72
2023/07/26 05:46:01;;;;;;;;;;;;;;;-144.99;100.00;52311.53;4987424;28;19943;-72
2023/07/26 05:48:27;;;;;;;;;;;;;;;-144.99;100.00;52340.06;4980236;28;20326;-71
2023/07/26 05:50:54;;;;;;;;;;;;;;;-144.99;100.00;52354.34;4982930;28;19959;-70
2023/07/26 05:53:21;;;;;;;;;;;;;;;-144.99;100.00;52391.03;4984039;28;20310;-71
2023/07/26 05:55:49;;;;;;;;;;;;;;;-144.99;100.00;52327.84;4985945;28;19945;-71
2023/07/26 05:58:16;;;;;;;;;;;;;;;-144.99;100.00;52305.41;4982679;28;19965;-72
2023/07/26 06:00:42;;;;;;;;;;;;;;;-144.99;100.00;52297.25;4988029;28;19964;-72
2023/07/26 06:03:09;;;;;;;;;;;;;;;-144.99;100.00;52338.03;4985095;28;19953;-71
2023/07/26 06:05:35;;;;;;;;;;;;;;;-144.99;100.00;52268.72;4981632;28;19948;-72
2023/07/26 06:08:02;;;;;;;;;;;;;;;-144.99;100.00;52336.00;4988534;28;20286;-73
2023/07/26 06:10:29;;;;;;;;;;;;;;;-144.99;100.00;52342.09;4995388;28;20459;-72
2023/07/26 06:12:57;;;;;;;;;;;;;;;-144.99;100.00;52317.66;4977646;28;19955;-72
2023/07/26 06:15:24;;;;;;;;;;;;;;;-144.99;100.00;52319.69;4984920;28;19948;-73
2023/07/26 06:17:50;;;;;;;;;;;;;;;-144.99;100.00;52309.50;4988378;28;20335;-74
2023/07/26 06:20:17;;;;;;;;;;;;;;;-144.99;100.00;52301.34;4990997;28;19975;-71
2023/07/26 06:22:44;;;;;;;;;;;;;;;-144.99;100.00;52305.41;4984240;28;19948;-72
2023/07/26 06:25:10;;;;;;;;;;;;;;;-144.99;100.00;52297.25;4986544;28;19972;-72
2023/07/26 06:27:37;;;;;;;;;;;;;;;-144.99;100.00;52285.03;4984579;28;20328;-72
2023/07/26 06:30:06;;;;;;;;;;;;;;;-144.99;100.00;52309.50;4983677;28;20266;-73
2023/07/26 06:32:32;;;;;;;;;;;;;;;-144.99;99.47;52289.13;4982505;28;19959;-74
2023/07/26 06:34:59;;;;;;;;;;;;;;;-144.99;98.31;52287.06;4987735;28;19939;-72
2023/07/26 06:37:26;;;;;;;;;;;;;;;-144.99;96.19;52240.19;4987920;28;19948;-73
2023/07/26 06:39:52;;;;;;;;;;;;;;;-144.99;96.38;52260.56;5002408;28;20087;-75
2023/07/26 06:42:19;;;;;;;;;;;;;;;-144.99;94.92;52260.56;5001055;28;19940;-73
2023/07/26 06:44:46;;;;;;;;;;;;;;;-144.99;94.09;52283.00;4987537;28;19950;-73
2023/07/26 06:47:14;;;;;;;;;;;;;;;-144.99;95.26;52278.91;4986342;28;19949;-73
2023/07/26 06:49:40;;;;;;;;;;;;;;;-144.99;95.53;52317.66;4984841;28;19954;-74
2023/07/26 06:52:07;;;;;;;;;;;;;;;-144.99;95.49;52285.03;4984233;28;19973;-73
2023/07/26 06:54:34;;;;;;;;;;;;;;;-144.99;95.35;52311.53;4985055;28;20178;-74
2023/07/26 06:57:00;;;;;;;;;;;;;;;-144.99;96.09;52272.81;4984352;28;19951;-74
2023/07/26 06:59:27;;;;;;;;;;;;;;;-144.99;94.25;52301.34;4988796;28;19951;-75
2023/07/26 07:01:54;;;;;;;;;;;;;;;-144.99;94.10;52309.50;4987123;28;19969;-73
2023/07/26 07:04:22;;;;;;;;;;;;;;;-144.99;93.96;52285.03;4996441;28;20280;-74
2023/07/26 07:06:48;;;;;;;;;;;;;;;-144.99;94.23;52305.41;4988161;28;19957;-74
2023/07/26 07:09:15;;;;;;;;;;;;;;;-144.99;94.66;52276.88;4998019;28;19952;-73
2023/07/26 07:11:42;;;;;;;;;;;;;;;-144.99;94.78;52301.34;4988320;28;19970;-74
2023/07/26 07:14:08;;;;;;;;;;;;;;;-144.99;93.75;52333.94;4986582;28;19958;-74
2023/07/26 07:16:35;;;;;;;;;;;;;;;-144.99;93.45;52313.56;4988491;28;19947;-72
2023/07/26 07:19:02;;;;;;;;;;;;;;;-144.99;93.37;52276.88;4988153;28;20367;-75
2023/07/26 07:21:30;;;;;;;;;;;;;;;-144.99;91.93;52268.72;4981162;28;19954;-74
2023/07/26 07:23:57;;;;;;;;;;;;;;;-144.99;91.10;52260.56;4981255;28;19951;-74
2023/07/26 07:26:24;;;;;;;;;;;;;;;-144.99;90.63;52268.72;4983235;28;19943;-74
2023/07/26 07:28:50;;;;;;;;;;;;;;;-144.99;91.21;52285.03;4989713;28;19945;-75
2023/07/26 07:31:17;;;;;;;;;;;;;;;-144.99;90.37;52295.22;4988014;28;19962;-74
2023/07/26 07:33:44;;;;;;;;;;;;;;;-144.99;90.35;52289.13;4984679;28;20014;-73
2023/07/26 07:36:15;;;;;;;;;;;;;;;-144.99;91.07;52293.19;4988372;28;20339;-75
2023/07/26 07:38:43;;;;;;;;;;;;;;;-144.99;89.37;52325.81;4990028;28;19962;-74
2023/07/26 07:41:10;;;;;;;;;;;;;;;-144.99;88.69;52264.66;4991298;28;19933;-73
2023/07/26 07:43:38;;;;;;;;;;;;;;;-144.99;87.10;52276.88;4988492;28;19944;-74
2023/07/26 07:46:05;;;;;;;;;;;;;;;-144.99;86.70;52272.81;4989915;28;19980;-75
2023/07/26 07:48:32;;;;;;;;;;;;;;;-144.99;87.07;52256.50;4988436;28;20125;-74
2023/07/26 07:50:58;;;;;;;;;;;;;;;-144.99;86.14;52272.81;4979064;28;19962;-73
2023/07/26 07:53:25;;;;;;;;;;;;;;;-144.99;86.53;52276.88;4986493;28;20313;-74
2023/07/26 07:55:53;;;;;;;;;;;;;;;-144.99;86.46;52244.28;4981963;28;19941;-73
2023/07/26 07:58:20;;;;;;;;;;;;;;;-144.99;85.82;52366.56;4985613;28;19946;-74
2023/07/26 08:00:47;;;;;;;;;;;;;;;-144.99;84.67;52236.13;4987311;28;20052;-75
2023/07/26 08:03:13;;;;;;;;;;;;;;;-144.99;83.66;52260.56;4986649;28;19948;-75
2023/07/26 08:05:40;;;;;;;;;;;;;;;-144.99;82.55;52278.91;4984637;28;19983;-73
2023/07/26 08:08:07;;;;;;;;;;;;;;;-144.99;83.06;52270.78;4978204;28;19946;-76
2023/07/26 08:10:33;;;;;;;;;;;;;;;-144.99;82.97;52285.03;4979740;28;19969;-73
2023/07/26 08:13:01;;;;;;;;;;;;;;;-144.99;82.02;52236.13;4983990;28;20317;-75
2023/07/26 08:15:32;;;;;;;;;;;;;;;-144.99;80.94;52278.91;4980130;28;20427;-74
2023/07/26 08:17:59;;;;;;;;;;;;;;;-144.99;79.74;52248.34;4989050;28;19938;-76
2023/07/26 08:20:25;;;;;;;;;;;;;;;-144.99;79.76;52252.44;4980990;28;19948;-75
2023/07/26 08:22:52;;;;;;;;;;;;;;;-144.99;78.46;52264.66;4987485;28;19948;-75
2023/07/26 08:25:19;;;;;;;;;;;;;;;-144.99;79.19;52236.13;4986605;28;19940;-75
2023/07/26 08:27:45;;;;;;;;;;;;;;;-144.99;77.12;52297.25;4988000;28;20046;-74
2023/07/26 08:30:14;;;;;;;;;;;;;;;-144.99;78.39;52268.72;4983278;28;19940;-74
2023/07/26 08:32:40;;;;;;;;;;;;;;;-144.99;77.48;52276.88;4986475;28;19960;-75
2023/07/26 08:35:07;;;;;;;;;;;;;;;-144.99;77.13;52295.22;4989672;28;19942;-74
2023/07/26 08:37:34;;;;;;;;;;;;;;;-144.99;76.90;52254.47;4982119;28;19951;-73
2023/07/26 08:40:00;;;;;;;;;;;;;;;-144.99;76.06;52293.19;4984690;28;19949;-75
2023/07/26 08:42:27;;;;;;;;;;;;;;;-144.99;74.96;52268.72;4991908;28;19963;-74
2023/07/26 08:44:54;;;;;;;;;;;;;;;-144.99;73.95;52268.72;4990687;28;19926;-75
2023/07/26 08:47:22;;;;;;;;;;;;;;;-144.99;72.92;52272.81;4993024;28;19937;-74
2023/07/26 08:49:49;;;;;;;;;;;;;;;-144.99;72.28;52289.13;4983717;28;19942;-74
2023/07/26 08:52:17;;;;;;;;;;;;;;;-144.99;71.95;52280.97;4984268;28;20395;-75
2023/07/26 08:54:43;;;;;;;;;;;;;;;-144.99;71.75;52317.66;4993247;28;19965;-74
2023/07/26 08:57:10;;;;;;;;;;;;;;;-144.99;70.57;52280.97;4998220;28;19945;-76
2023/07/26 08:59:37;;;;;;;;;;;;;;;-144.99;70.90;52260.56;4986142;28;20030;-75
2023/07/26 09:02:04;;;;;;;;;;;;;;;-144.99;71.43;52285.03;5002054;28;19956;-75
2023/07/26 09:04:33;;;;;;;;;;;;;;;-144.99;70.83;52287.06;4996830;28;19938;-76
2023/07/26 09:07:01;;;;;;;;;;;;;;;-144.99;71.08;52307.47;4996983;28;20390;-75
2023/07/26 09:09:28;;;;;;;;;;;;;;;-144.99;70.75;52313.56;4985045;28;19926;-77
2023/07/26 09:11:54;;;;;;;;;;;;;;;-144.99;71.08;52252.44;4991063;28;19960;-76
2023/07/26 09:14:26;;;;;;;;;;;;;;;-144.99;70.62;52219.81;4991635;28;19952;-75
2023/07/26 09:16:55;;;;;;;;;;;;;;;-144.99;70.12;52289.13;4996912;28;19944;-76
2023/07/26 09:19:27;;;;;;;;;;;;;;;-144.99;69.57;52236.13;4993826;28;20390;-76
2023/07/26 09:21:56;;;;;;;;;;;;;;;-144.99;69.63;52252.44;4988650;28;20020;-75
2023/07/26 09:24:29;;;;;;;;;;;;;;;-144.99;68.88;52223.88;4992260;28;19959;-76
2023/07/26 09:27:03;;;;;;;;;;;;;;;-144.99;69.75;52244.28;4990705;28;20276;-75
2023/07/26 09:29:29;;;;;;;;;;;;;;;-144.99;70.44;52227.97;5000664;28;20026;-77
2023/07/26 09:31:56;;;;;;;;;;;;;;;-144.99;69.73;52262.63;4991536;28;19960;-76
2023/07/26 09:34:23;;;;;;;;;;;;;;;-144.99;68.78;52248.34;4993584;28;20399;-76
2023/07/26 09:36:49;;;;;;;;;;;;;;;-144.99;69.27;52250.38;4990703;28;19937;-76
2023/07/26 09:39:18;;;;;;;;;;;;;;;-144.99;69.59;52256.50;4984587;28;20046;-77
2023/07/26 09:41:46;;;;;;;;;;;;;;;-144.99;70.09;52264.66;4989684;28;20382;-75
2023/07/26 09:44:15;;;;;;;;;;;;;;;-144.99;70.08;52276.88;4991000;28;20079;-75
2023/07/26 09:46:49;;;;;;;;;;;;;;;-144.99;69.20;52223.88;4992957;28;19986;-76
2023/07/26 09:49:16;;;;;;;;;;;;;;;-144.99;68.74;52268.72;4989633;28;19975;-75
2023/07/26 09:51:42;;;;;;;;;;;;;;;-144.99;69.37;52252.44;4989081;28;19933;-74
2023/07/26 09:54:10;;;;;;;;;;;;;;;-144.99;69.36;52230.00;4988750;28;20379;-75
2023/07/26 09:56:39;;;;;;;;;;;;;;;-144.99;68.33;52193.31;4989523;28;19960;-75
2023/07/26 09:59:08;;;;;;;;;;;;;;;-144.99;68.41;52219.81;4990039;28;19937;-75
2023/07/26 10:01:37;;;;;;;;;;;;;;;-144.99;68.70;52268.72;4988931;28;20168;-74
2023/07/26 10:04:04;;;;;;;;;;;;;;;-144.99;69.09;52240.19;4990412;28;20035;-75
2023/07/26 10:06:33;;;;;;;;;;;;;;;-144.99;69.15;52280.97;5014816;28;19950;-77
2023/07/26 10:09:01;;;;;;;;;;;;;;;-144.99;68.88;52268.72;5010026;28;19925;-74
2023/07/26 10:11:28;;;;;;;;;;;;;;;-144.99;68.54;52246.31;4989458;28;20383;-76
2023/07/26 10:13:58;;;;;;;;;;;;;;;-144.99;68.14;52199.44;4990603;28;19958;-78
2023/07/26 10:16:26;;;;;;;;;;;;;;;-144.99;67.89;52207.59;4989857;28;20299;-76
2023/07/26 10:18:54;;;;;;;;;;;;;;;-144.99;66.99;52199.44;4987534;28;19954;-75
2023/07/26 10:21:21;;;;;;;;;;;;;;;-144.99;67.57;52248.34;4986238;28;19929;-75
2023/07/26 10:23:49;;;;;;;;;;;;;;;-144.99;68.08;52268.72;4989188;28;19929;-74
2023/07/26 10:26:16;;;;;;;;;;;;;;;-144.99;66.50;52219.81;4991732;28;19956;-77
2023/07/26 10:28:43;;;;;;;;;;;;;;;-144.99;66.12;52207.59;4989947;28;19974;-76
2023/07/26 10:31:12;;;;;;;;;;;;;;;-144.99;65.70;52215.75;4991774;28;20044;-76
2023/07/26 10:33:44;;;;;;;;;;;;;;;-144.99;64.88;52242.22;4989521;28;19964;-75
2023/07/26 10:36:12;;;;;;;;;;;;;;;-144.99;65.77;52248.34;4990537;28;19933;-76
2023/07/26 10:38:39;;;;;;;;;;;;;;;-144.99;66.25;52246.31;4991843;28;19960;-77
2023/07/26 10:41:21;;;;;;;;;;;;;;;-144.99;66.46;52256.50;4997091;28;19964;-77
2023/07/26 10:43:49;;;;;;;;;;;;;;;-144.99;66.53;52215.75;4994901;28;19968;-75
2023/07/26 10:46:20;;;;;;;;;;;;;;;-144.99;65.82;52162.75;4993538;28;19929;-76
2023/07/26 10:48:48;;;;;;;;;;;;;;;-144.99;65.04;52223.88;4991551;28;20373;-76
2023/07/26 10:51:31;;;;;;;;;;;;;;;-144.99;64.07;52179.06;4994309;28;20010;-76
2023/07/26 10:53:58;;;;;;;;;;;;;;;-144.99;63.19;52134.22;4994736;28;20231;-76
2023/07/26 10:56:25;;;;;;;;;;;;;;;-144.99;64.44;52138.28;4985398;28;20026;-76
2023/07/26 10:58:55;;;;;;;;;;;;;;;-144.99;64.05;52154.59;4992742;28;20336;-76
2023/07/26 11:01:34;;;;;;;;;;;;;;;-144.99;64.57;52236.13;4987814;28;20060;-76
2023/07/26 11:04:00;;;;;;;;;;;;;;;-144.99;65.56;52211.66;4982320;28;19983;-77
2023/07/26 11:06:45;;;;;;;;;;;;;;;-144.99;65.28;52227.97;4989662;28;19949;-76
2023/07/26 11:09:19;;;;;;;;;;;;;;;-144.99;64.62;52211.66;4980294;28;19926;-75
2023/07/26 11:11:55;;;;;;;;;;;;;;;-144.99;64.50;52209.63;4980868;28;19962;-75
2023/07/26 11:14:23;;;;;;;;;;;;;;;-144.99;64.28;52158.66;4985781;28;19964;-76
2023/07/26 11:16:51;;;;;;;;;;;;;;;-144.99;65.92;52272.81;4985333;28;19946;-78
2023/07/26 11:19:19;;;;;;;;;;;;;;;-144.99;66.74;52268.72;4993648;28;19974;-79
2023/07/26 11:21:46;;;;;;;;;;;;;;;-144.99;67.93;52264.66;4991716;28;20376;-77
2023/07/26 11:24:13;;;;;;;;;;;;;;;-144.99;68.71;52307.47;4989813;28;19953;-76
2023/07/26 11:26:41;;;;;;;;;;;;;;;-144.99;71.65;52264.66;4984672;28;19945;-76
2023/07/26 11:29:08;;;;;;;;;;;;;;;-144.99;72.40;52256.50;4984681;28;19992;-76
2023/07/26 11:31:35;;;;;;;;;;;;;;;-144.99;73.92;52309.50;4993850;28;19954;-75
2023/07/26 11:34:15;;;;;;;;;;;;;;;-144.99;76.31;52305.41;4986187;28;19967;-73
2023/07/26 11:36:41;;;;;;;;;;;;;;;-144.99;79.05;52333.94;4986750;28;19976;-73
2023/07/26 11:39:18;;;;;;;;;;;;;;;-144.99;81.93;52370.63;4986633;28;19944;-73
2023/07/26 11:41:45;;;;;;;;;;;;;;;-144.99;83.61;52301.34;4987809;28;20056;-73
2023/07/26 11:44:11;;;;;;;;;;;;;;;-144.99;85.35;52301.34;4990480;28;19943;-74
2023/07/26 11:46:39;;;;;;;;;;;;;;;-144.99;86.08;52358.41;4986080;28;19938;-74
2023/07/26 11:49:06;;;;;;;;;;;;;;;-144.99;86.57;52313.56;4992098;28;20101;-74
2023/07/26 11:51:34;;;;;;;;;;;;;;;-144.99;86.96;52313.56;4988029;28;20258;-74
2023/07/26 11:54:01;;;;;;;;;;;;;;;-144.99;86.19;52333.94;4988770;28;20452;-73
2023/07/26 11:56:30;;;;;;;;;;;;;;;-144.99;85.81;52223.88;4989747;28;19946;-74
2023/07/26 11:58:57;;;;;;;;;;;;;;;-144.99;85.61;52203.50;4991515;28;19936;-76
2023/07/26 12:01:24;;;;;;;;;;;;;;;-144.99;83.17;52217.78;4992059;28;19956;-75
2023/07/26 12:03:51;;;;;;;;;;;;;;;-144.99;79.27;52191.28;4992365;28;19929;-75
2023/07/26 12:06:19;;;;;;;;;;;;;;;-144.99;78.11;52219.81;4992981;28;19944;-76
2023/07/26 12:08:47;;;;;;;;;;;;;;;-144.99;77.42;52140.31;4991064;28;19968;-75
2023/07/26 12:11:17;;;;;;;;;;;;;;;-144.99;77.07;52158.66;4994599;28;19956;-75
2023/07/26 12:13:45;;;;;;;;;;;;;;;-144.99;72.73;52172.94;4990598;28;20350;-75
2023/07/26 12:16:11;;;;;;;;;;;;;;;-144.99;71.79;52232.03;4650315;28;10000338;-75
2023/07/26 12:18:49;;;;;;;;;;;;;;;-144.99;72.36;52219.81;4996725;28;19944;-76
2023/07/26 12:21:16;;;;;;;;;;;;;;;-144.99;72.69;52303.38;4994709;28;19956;-77